sensor_id;sensor_type;location;lat;lon;timestamp;P1;durP1;ratioP1;P2;durP2;ratioP2
78968;SDS011;68369;51.050;17.018;2023-06-14T00:01:34;4.90;;;3.70;;
78968;SDS011;68369;51.050;17.018;2023-06-14T00:04:19;4.30;;;3.10;;
78968;SDS011;68369;51.050;17.018;2023-06-14T00:07:05;4.10;;;3.00;;
78968;SDS011;68369;51.050;17.018;2023-06-14T00:09:53;5.70;;;3.40;;
78968;SDS011;68369;51.050;17.018;2023-06-14T00:12:38;6.10;;;3.50;;
78968;SDS011;68369;51.050;17.018;2023-06-14T00:21:53;4.90;;;3.40;;
78968;SDS011;68369;51.050;17.018;2023-06-14T00:24:39;6.20;;;3.30;;
78968;SDS011;68369;51.050;17.018;2023-06-14T00:27:24;4.60;;;3.40;;
78968;SDS011;68369;51.050;17.018;2023-06-14T00:30:10;6.80;;;3.40;;
78968;SDS011;68369;51.050;17.018;2023-06-14T00:35:50;4.60;;;3.10;;
78968;SDS011;68369;51.050;17.018;2023-06-14T00:38:40;4.50;;;2.90;;
78968;SDS011;68369;51.050;17.018;2023-06-14T00:41:25;4.20;;;2.70;;
78968;SDS011;68369;51.050;17.018;2023-06-14T00:44:12;6.30;;;3.50;;
78968;SDS011;68369;51.050;17.018;2023-06-14T00:53:03;5.50;;;3.10;;
78968;SDS011;68369;51.050;17.018;2023-06-14T00:55:50;4.80;;;3.00;;
78968;SDS011;68369;51.050;17.018;2023-06-14T00:58:36;5.60;;;3.00;;
78968;SDS011;68369;51.050;17.018;2023-06-14T01:01:21;5.10;;;3.20;;
78968;SDS011;68369;51.050;17.018;2023-06-14T01:04:07;6.70;;;3.60;;
78968;SDS011;68369;51.050;17.018;2023-06-14T01:19:31;5.70;;;3.30;;
78968;SDS011;68369;51.050;17.018;2023-06-14T01:22:19;5.50;;;3.10;;
78968;SDS011;68369;51.050;17.018;2023-06-14T01:25:04;4.10;;;3.00;;
78968;SDS011;68369;51.050;17.018;2023-06-14T01:34:26;4.40;;;2.80;;
78968;SDS011;68369;51.050;17.018;2023-06-14T01:37:12;6.50;;;2.90;;
78968;SDS011;68369;51.050;17.018;2023-06-14T01:39:58;3.60;;;2.70;;
78968;SDS011;68369;51.050;17.018;2023-06-14T01:48:47;6.60;;;2.60;;
78968;SDS011;68369;51.050;17.018;2023-06-14T01:51:34;5.20;;;3.00;;
78968;SDS011;68369;51.050;17.018;2023-06-14T01:54:20;4.50;;;3.20;;
78968;SDS011;68369;51.050;17.018;2023-06-14T02:12:24;5.90;;;3.40;;
78968;SDS011;68369;51.050;17.018;2023-06-14T02:15:14;4.50;;;3.00;;
78968;SDS011;68369;51.050;17.018;2023-06-14T02:18:04;6.20;;;3.60;;
78968;SDS011;68369;51.050;17.018;2023-06-14T02:20:49;5.40;;;3.50;;
78968;SDS011;68369;51.050;17.018;2023-06-14T02:23:35;5.70;;;3.60;;
78968;SDS011;68369;51.050;17.018;2023-06-14T02:26:20;4.20;;;3.10;;
78968;SDS011;68369;51.050;17.018;2023-06-14T02:32:19;3.90;;;3.10;;
78968;SDS011;68369;51.050;17.018;2023-06-14T02:35:06;5.40;;;3.50;;
78968;SDS011;68369;51.050;17.018;2023-06-14T02:37:53;6.10;;;3.40;;
78968;SDS011;68369;51.050;17.018;2023-06-14T02:40:38;6.60;;;3.50;;
78968;SDS011;68369;51.050;17.018;2023-06-14T02:46:38;5.20;;;3.50;;
78968;SDS011;68369;51.050;17.018;2023-06-14T02:49:25;5.20;;;3.40;;
78968;SDS011;68369;51.050;17.018;2023-06-14T02:52:13;6.70;;;3.60;;
78968;SDS011;68369;51.050;17.018;2023-06-14T02:54:59;4.60;;;2.80;;
78968;SDS011;68369;51.050;17.018;2023-06-14T03:00:38;4.80;;;3.00;;
78968;SDS011;68369;51.050;17.018;2023-06-14T03:03:27;5.20;;;2.90;;
78968;SDS011;68369;51.050;17.018;2023-06-14T03:06:13;5.70;;;3.70;;
78968;SDS011;68369;51.050;17.018;2023-06-14T03:09:01;5.50;;;3.60;;
78968;SDS011;68369;51.050;17.018;2023-06-14T03:11:51;5.30;;;3.50;;
78968;SDS011;68369;51.050;17.018;2023-06-14T03:14:36;4.10;;;3.30;;
78968;SDS011;68369;51.050;17.018;2023-06-14T03:23:44;6.80;;;3.50;;
78968;SDS011;68369;51.050;17.018;2023-06-14T03:26:32;5.00;;;3.50;;
78968;SDS011;68369;51.050;17.018;2023-06-14T03:29:18;5.50;;;3.40;;
78968;SDS011;68369;51.050;17.018;2023-06-14T03:32:05;4.80;;;3.50;;
78968;SDS011;68369;51.050;17.018;2023-06-14T03:34:52;4.10;;;3.00;;
78968;SDS011;68369;51.050;17.018;2023-06-14T03:37:39;5.10;;;3.30;;
78968;SDS011;68369;51.050;17.018;2023-06-14T03:40:23;5.50;;;3.70;;
78968;SDS011;68369;51.050;17.018;2023-06-14T03:43:10;4.70;;;3.10;;
78968;SDS011;68369;51.050;17.018;2023-06-14T03:45:55;6.00;;;3.90;;
78968;SDS011;68369;51.050;17.018;2023-06-14T03:48:41;4.70;;;3.50;;
78968;SDS011;68369;51.050;17.018;2023-06-14T03:51:26;6.30;;;4.10;;
78968;SDS011;68369;51.050;17.018;2023-06-14T04:07:15;6.80;;;4.10;;
78968;SDS011;68369;51.050;17.018;2023-06-14T04:10:04;5.70;;;4.10;;
78968;SDS011;68369;51.050;17.018;2023-06-14T04:15:52;5.10;;;3.40;;
78968;SDS011;68369;51.050;17.018;2023-06-14T04:18:37;5.60;;;3.80;;
78968;SDS011;68369;51.050;17.018;2023-06-14T04:21:22;4.60;;;3.40;;
78968;SDS011;68369;51.050;17.018;2023-06-14T04:24:07;5.50;;;4.10;;
78968;SDS011;68369;51.050;17.018;2023-06-14T04:26:58;7.40;;;3.50;;
78968;SDS011;68369;51.050;17.018;2023-06-14T04:29:44;5.00;;;3.50;;
78968;SDS011;68369;51.050;17.018;2023-06-14T04:32:34;6.00;;;3.70;;
78968;SDS011;68369;51.050;17.018;2023-06-14T04:38:36;4.90;;;3.50;;
78968;SDS011;68369;51.050;17.018;2023-06-14T04:41:21;6.80;;;4.10;;
78968;SDS011;68369;51.050;17.018;2023-06-14T04:53:30;8.40;;;3.80;;
78968;SDS011;68369;51.050;17.018;2023-06-14T04:59:07;7.70;;;4.60;;
78968;SDS011;68369;51.050;17.018;2023-06-14T05:01:52;7.10;;;4.10;;
78968;SDS011;68369;51.050;17.018;2023-06-14T05:10:46;7.50;;;4.30;;
78968;SDS011;68369;51.050;17.018;2023-06-14T05:13:31;5.10;;;4.00;;
78968;SDS011;68369;51.050;17.018;2023-06-14T05:19:22;5.10;;;4.30;;
78968;SDS011;68369;51.050;17.018;2023-06-14T05:22:07;7.70;;;4.10;;
78968;SDS011;68369;51.050;17.018;2023-06-14T05:24:53;6.20;;;4.10;;
78968;SDS011;68369;51.050;17.018;2023-06-14T05:27:38;6.70;;;4.40;;
78968;SDS011;68369;51.050;17.018;2023-06-14T05:33:18;6.30;;;4.30;;
78968;SDS011;68369;51.050;17.018;2023-06-14T05:36:05;7.40;;;3.90;;
78968;SDS011;68369;51.050;17.018;2023-06-14T05:38:53;8.00;;;4.70;;
78968;SDS011;68369;51.050;17.018;2023-06-14T05:41:44;10.70;;;5.00;;
78968;SDS011;68369;51.050;17.018;2023-06-14T05:47:44;6.80;;;4.50;;
78968;SDS011;68369;51.050;17.018;2023-06-14T05:53:19;7.80;;;5.10;;
78968;SDS011;68369;51.050;17.018;2023-06-14T05:56:06;8.30;;;4.80;;
78968;SDS011;68369;51.050;17.018;2023-06-14T05:58:51;6.90;;;5.00;;
78968;SDS011;68369;51.050;17.018;2023-06-14T06:04:59;6.90;;;4.60;;
78968;SDS011;68369;51.050;17.018;2023-06-14T06:07:45;7.90;;;5.20;;
78968;SDS011;68369;51.050;17.018;2023-06-14T06:13:24;11.70;;;5.10;;
78968;SDS011;68369;51.050;17.018;2023-06-14T06:16:10;9.90;;;5.20;;
78968;SDS011;68369;51.050;17.018;2023-06-14T06:18:55;7.90;;;5.30;;
78968;SDS011;68369;51.050;17.018;2023-06-14T06:21:40;8.60;;;5.40;;
78968;SDS011;68369;51.050;17.018;2023-06-14T06:24:26;8.60;;;5.10;;
78968;SDS011;68369;51.050;17.018;2023-06-14T08:00:34;9.70;;;7.10;;
78968;SDS011;68369;51.050;17.018;2023-06-14T08:37:22;7.80;;;5.40;;
78968;SDS011;68369;51.050;17.018;2023-06-14T09:10:11;7.60;;;4.50;;
78968;SDS011;68369;51.050;17.018;2023-06-14T09:32:12;8.60;;;4.90;;
78968;SDS011;68369;51.050;17.018;2023-06-14T09:44:40;10.40;;;5.40;;
78968;SDS011;68369;51.050;17.018;2023-06-14T09:47:26;7.30;;;4.90;;
78968;SDS011;68369;51.050;17.018;2023-06-14T11:16:34;3.10;;;2.50;;
78968;SDS011;68369;51.050;17.018;2023-06-14T11:19:21;3.90;;;2.60;;
78968;SDS011;68369;51.050;17.018;2023-06-14T11:22:06;5.70;;;2.60;;
78968;SDS011;68369;51.050;17.018;2023-06-14T11:24:52;3.10;;;2.20;;
78968;SDS011;68369;51.050;17.018;2023-06-14T11:27:37;6.20;;;3.00;;
78968;SDS011;68369;51.050;17.018;2023-06-14T11:30:23;3.00;;;2.20;;
78968;SDS011;68369;51.050;17.018;2023-06-14T11:33:09;3.00;;;2.60;;
78968;SDS011;68369;51.050;17.018;2023-06-14T11:35:56;3.90;;;2.80;;
78968;SDS011;68369;51.050;17.018;2023-06-14T11:38:41;4.80;;;2.50;;
78968;SDS011;68369;51.050;17.018;2023-06-14T11:41:31;3.10;;;2.40;;
78968;SDS011;68369;51.050;17.018;2023-06-14T11:44:17;5.90;;;3.10;;
78968;SDS011;68369;51.050;17.018;2023-06-14T11:47:03;4.20;;;2.70;;
78968;SDS011;68369;51.050;17.018;2023-06-14T11:49:48;4.20;;;2.70;;
78968;SDS011;68369;51.050;17.018;2023-06-14T11:52:36;5.40;;;2.70;;
78968;SDS011;68369;51.050;17.018;2023-06-14T11:55:22;5.00;;;2.70;;
78968;SDS011;68369;51.050;17.018;2023-06-14T12:04:12;3.50;;;2.30;;
78968;SDS011;68369;51.050;17.018;2023-06-14T12:06:57;3.60;;;2.40;;
78968;SDS011;68369;51.050;17.018;2023-06-14T12:19:09;3.70;;;2.40;;
78968;SDS011;68369;51.050;17.018;2023-06-14T12:21:56;5.00;;;2.60;;
78968;SDS011;68369;51.050;17.018;2023-06-14T12:37:59;3.60;;;2.10;;
78968;SDS011;68369;51.050;17.018;2023-06-14T13:02:42;8.30;;;2.10;;
78968;SDS011;68369;51.050;17.018;2023-06-14T13:05:30;0.50;;;0.50;;
78968;SDS011;68369;51.050;17.018;2023-06-14T13:08:19;3.70;;;2.40;;
78968;SDS011;68369;51.050;17.018;2023-06-14T13:11:10;3.90;;;2.00;;
78968;SDS011;68369;51.050;17.018;2023-06-14T13:13:57;3.90;;;2.00;;
78968;SDS011;68369;51.050;17.018;2023-06-14T13:16:45;4.30;;;2.20;;
78968;SDS011;68369;51.050;17.018;2023-06-14T13:19:31;4.80;;;2.30;;
78968;SDS011;68369;51.050;17.018;2023-06-14T13:22:16;6.10;;;2.70;;
78968;SDS011;68369;51.050;17.018;2023-06-14T13:25:01;6.70;;;2.40;;
78968;SDS011;68369;51.050;17.018;2023-06-14T13:27:48;4.30;;;2.50;;
78968;SDS011;68369;51.050;17.018;2023-06-14T13:30:33;7.10;;;2.80;;
78968;SDS011;68369;51.050;17.018;2023-06-14T13:33:18;7.20;;;2.60;;
78968;SDS011;68369;51.050;17.018;2023-06-14T13:36:04;2.60;;;2.20;;
78968;SDS011;68369;51.050;17.018;2023-06-14T13:38:49;3.20;;;2.00;;
78968;SDS011;68369;51.050;17.018;2023-06-14T13:41:36;3.50;;;2.30;;
78968;SDS011;68369;51.050;17.018;2023-06-14T13:44:21;5.20;;;2.30;;
78968;SDS011;68369;51.050;17.018;2023-06-14T13:47:26;4.60;;;2.60;;
78968;SDS011;68369;51.050;17.018;2023-06-14T13:50:16;2.90;;;2.50;;
78968;SDS011;68369;51.050;17.018;2023-06-14T13:53:02;3.00;;;2.40;;
78968;SDS011;68369;51.050;17.018;2023-06-14T13:55:47;3.00;;;2.30;;
78968;SDS011;68369;51.050;17.018;2023-06-14T13:58:33;4.40;;;2.10;;
78968;SDS011;68369;51.050;17.018;2023-06-14T14:01:18;3.60;;;2.20;;
78968;SDS011;68369;51.050;17.018;2023-06-14T14:04:04;3.50;;;2.20;;
78968;SDS011;68369;51.050;17.018;2023-06-14T14:06:50;2.60;;;2.00;;
78968;SDS011;68369;51.050;17.018;2023-06-14T14:09:35;4.10;;;2.40;;
78968;SDS011;68369;51.050;17.018;2023-06-14T14:12:20;4.20;;;2.30;;
78968;SDS011;68369;51.050;17.018;2023-06-14T14:15:05;5.00;;;2.20;;
78968;SDS011;68369;51.050;17.018;2023-06-14T14:17:57;2.60;;;1.80;;
78968;SDS011;68369;51.050;17.018;2023-06-14T14:20:42;4.00;;;2.10;;
78968;SDS011;68369;51.050;17.018;2023-06-14T14:23:28;3.70;;;2.60;;
78968;SDS011;68369;51.050;17.018;2023-06-14T14:26:13;4.20;;;2.40;;
78968;SDS011;68369;51.050;17.018;2023-06-14T14:28:58;3.80;;;2.30;;
78968;SDS011;68369;51.050;17.018;2023-06-14T14:31:44;6.00;;;2.70;;
78968;SDS011;68369;51.050;17.018;2023-06-14T14:34:30;7.50;;;2.40;;
78968;SDS011;68369;51.050;17.018;2023-06-14T14:37:15;4.30;;;2.50;;
78968;SDS011;68369;51.050;17.018;2023-06-14T14:43:18;3.50;;;1.90;;
78968;SDS011;68369;51.050;17.018;2023-06-14T15:03:13;3.70;;;1.80;;
78968;SDS011;68369;51.050;17.018;2023-06-14T15:18:59;4.30;;;2.60;;
78968;SDS011;68369;51.050;17.018;2023-06-14T15:21:46;3.80;;;2.60;;
78968;SDS011;68369;51.050;17.018;2023-06-14T15:24:33;5.40;;;3.20;;
78968;SDS011;68369;51.050;17.018;2023-06-14T15:27:28;5.90;;;2.70;;
78968;SDS011;68369;51.050;17.018;2023-06-14T15:30:13;4.00;;;2.70;;
78968;SDS011;68369;51.050;17.018;2023-06-14T15:32:58;5.90;;;3.00;;
78968;SDS011;68369;51.050;17.018;2023-06-14T15:35:44;7.60;;;3.00;;
78968;SDS011;68369;51.050;17.018;2023-06-14T15:38:29;5.60;;;2.90;;
78968;SDS011;68369;51.050;17.018;2023-06-14T15:41:14;3.70;;;2.50;;
78968;SDS011;68369;51.050;17.018;2023-06-14T15:46:38;3.90;;;2.70;;
78968;SDS011;68369;51.050;17.018;2023-06-14T15:49:23;4.30;;;2.60;;
78968;SDS011;68369;51.050;17.018;2023-06-14T15:52:08;6.70;;;3.20;;
78968;SDS011;68369;51.050;17.018;2023-06-14T15:58:08;3.90;;;2.80;;
78968;SDS011;68369;51.050;17.018;2023-06-14T16:00:53;4.00;;;2.80;;
78968;SDS011;68369;51.050;17.018;2023-06-14T16:03:39;4.20;;;3.00;;
78968;SDS011;68369;51.050;17.018;2023-06-14T16:09:28;5.00;;;3.30;;
78968;SDS011;68369;51.050;17.018;2023-06-14T16:12:14;6.10;;;3.70;;
78968;SDS011;68369;51.050;17.018;2023-06-14T16:15:00;6.60;;;3.50;;
78968;SDS011;68369;51.050;17.018;2023-06-14T16:17:45;10.00;;;3.50;;
78968;SDS011;68369;51.050;17.018;2023-06-14T16:20:30;7.60;;;3.80;;
78968;SDS011;68369;51.050;17.018;2023-06-14T16:23:15;7.50;;;4.00;;
78968;SDS011;68369;51.050;17.018;2023-06-14T16:28:42;6.00;;;3.70;;
78968;SDS011;68369;51.050;17.018;2023-06-14T16:34:23;10.30;;;3.20;;
78968;SDS011;68369;51.050;17.018;2023-06-14T16:40:13;6.50;;;3.10;;
78968;SDS011;68369;51.050;17.018;2023-06-14T16:46:07;4.60;;;2.80;;
78968;SDS011;68369;51.050;17.018;2023-06-14T16:48:53;3.50;;;2.80;;
78968;SDS011;68369;51.050;17.018;2023-06-14T17:01:15;3.80;;;2.60;;
78968;SDS011;68369;51.050;17.018;2023-06-14T17:26:32;5.70;;;2.60;;
78968;SDS011;68369;51.050;17.018;2023-06-14T17:29:19;4.50;;;2.80;;
78968;SDS011;68369;51.050;17.018;2023-06-14T17:32:08;4.50;;;2.70;;
78968;SDS011;68369;51.050;17.018;2023-06-14T17:37:55;3.30;;;2.80;;
78968;SDS011;68369;51.050;17.018;2023-06-14T17:40:41;3.10;;;2.60;;
78968;SDS011;68369;51.050;17.018;2023-06-14T17:43:35;3.40;;;3.00;;
78968;SDS011;68369;51.050;17.018;2023-06-14T17:59:00;10.50;;;2.60;;
78968;SDS011;68369;51.050;17.018;2023-06-14T18:07:31;3.50;;;2.20;;
78968;SDS011;68369;51.050;17.018;2023-06-14T18:16:46;4.80;;;3.70;;
78968;SDS011;68369;51.050;17.018;2023-06-14T18:19:31;5.40;;;3.20;;
78968;SDS011;68369;51.050;17.018;2023-06-14T18:22:16;4.60;;;3.20;;
78968;SDS011;68369;51.050;17.018;2023-06-14T18:25:02;8.20;;;3.50;;
78968;SDS011;68369;51.050;17.018;2023-06-14T18:27:47;5.30;;;3.60;;
78968;SDS011;68369;51.050;17.018;2023-06-14T18:30:32;6.20;;;2.90;;
78968;SDS011;68369;51.050;17.018;2023-06-14T18:36:02;6.20;;;4.60;;
78968;SDS011;68369;51.050;17.018;2023-06-14T18:51:33;7.30;;;3.10;;
78968;SDS011;68369;51.050;17.018;2023-06-14T19:00:54;4.60;;;3.40;;
78968;SDS011;68369;51.050;17.018;2023-06-14T19:23:46;6.90;;;3.40;;
78968;SDS011;68369;51.050;17.018;2023-06-14T19:26:33;5.70;;;3.60;;
78968;SDS011;68369;51.050;17.018;2023-06-14T19:49:20;9.80;;;4.70;;
78968;SDS011;68369;51.050;17.018;2023-06-14T19:58:15;4.60;;;3.40;;
78968;SDS011;68369;51.050;17.018;2023-06-14T20:01:00;4.80;;;4.00;;
78968;SDS011;68369;51.050;17.018;2023-06-14T20:06:38;5.60;;;3.80;;
78968;SDS011;68369;51.050;17.018;2023-06-14T20:18:42;4.90;;;3.90;;
78968;SDS011;68369;51.050;17.018;2023-06-14T20:24:20;6.20;;;3.80;;
78968;SDS011;68369;51.050;17.018;2023-06-14T20:27:08;5.40;;;4.30;;
78968;SDS011;68369;51.050;17.018;2023-06-14T20:33:11;5.30;;;4.30;;
78968;SDS011;68369;51.050;17.018;2023-06-14T20:42:19;4.90;;;3.50;;
78968;SDS011;68369;51.050;17.018;2023-06-14T20:45:15;4.90;;;3.90;;
78968;SDS011;68369;51.050;17.018;2023-06-14T20:48:02;7.50;;;4.20;;
78968;SDS011;68369;51.050;17.018;2023-06-14T20:50:48;6.00;;;3.90;;
78968;SDS011;68369;51.050;17.018;2023-06-14T20:56:26;7.40;;;4.70;;
78968;SDS011;68369;51.050;17.018;2023-06-14T21:15:19;9.00;;;4.70;;
78968;SDS011;68369;51.050;17.018;2023-06-14T21:54:42;7.70;;;4.90;;
78968;SDS011;68369;51.050;17.018;2023-06-14T22:03:22;5.90;;;3.90;;
78968;SDS011;68369;51.050;17.018;2023-06-14T22:06:08;10.00;;;5.10;;
78968;SDS011;68369;51.050;17.018;2023-06-14T22:18:18;10.60;;;5.30;;
78968;SDS011;68369;51.050;17.018;2023-06-14T22:21:05;6.90;;;5.10;;
78968;SDS011;68369;51.050;17.018;2023-06-14T23:00:11;8.10;;;4.60;;
78968;SDS011;68369;51.050;17.018;2023-06-14T23:02:59;8.70;;;5.00;;
78968;SDS011;68369;51.050;17.018;2023-06-14T23:05:44;7.20;;;5.20;;
78968;SDS011;68369;51.050;17.018;2023-06-14T23:14:28;10.80;;;4.80;;
78968;SDS011;68369;51.050;17.018;2023-06-14T23:23:13;7.80;;;5.20;;
78968;SDS011;68369;51.050;17.018;2023-06-14T23:26:01;8.40;;;4.80;;
78968;SDS011;68369;51.050;17.018;2023-06-14T23:41:25;10.60;;;6.10;;
78968;SDS011;68369;51.050;17.018;2023-06-14T23:44:16;6.30;;;4.40;;
